Darwin, CA

3:09 PM PDT on July 01, 2015 (GMT -0700)
Studio Forge | | Change Station
CLOSE
Current Station
Personal Weather Station
Location: Ridgecrest, CA
Elevation: 2287 ft
Nearby Weather Stations

Elev 2287 ft 35.62 °N, 117.67 °W | Updated 19 seconds ago

Mostly Cloudy
Mostly Cloudy
91.4 °F
Feels Like 91 °F
N
5.0
Wind Variable Wind from North
Gusts 7.0 mph

Today
High -- | Low -- °F
--% Chance of Precip.
Yesterday
High -- | Low -- °F
Precip. -- in
5:38 AM 8:10 PM
Full, 100% visible
Pressure 29.94 in
Visibility 10.0 miles
Clouds Mostly Cloudy 12000 ft
Heat Index 91 °F
Dew Point 60 °F
Humidity 35%
Rainfall 0.07 in
Snow Depth Not available.
UV 5 out of 12
Pollen 5.70 out of 12
Air Quality Not available.
Flu Activity Not available.
METAR KNID 012156Z 00000KT 10SM BKN120 31/16 A3001 RMK AO2 SLP139 T03060161

More Conditions Fewer Conditions

Pressure 29.94 in
Visibility 10.0 miles
Clouds Mostly Cloudy 12000 ft
Heat Index 91 °F
Dew Point 60 °F
Humidity 35%
Rainfall 0.07 in
Snow Depth Not available.
UV 5 out of 12
Pollen 5.70 out of 12
Air Quality Not available.
Flu Activity Not available.
METAR KNID 012156Z 00000KT 10SM BKN120 31/16 A3001 RMK AO2 SLP139 T03060161

More Conditions Fewer Conditions

10-Day Weather Forecast

×

Almanac

Astronomy

Jul. 01, 2015 Rise Set
Actual Time
Civil Twilight
Nautical Twilight
Astronomical Twilight
Moon
Length of Visible Light
Length of Day
Tomorrow will be .
, % of the Moon is Illuminated

Today's Extremes

State Highs State Lows

Community

WunderPhotos

Upload Photos

1,834,303 photos uploaded!

WunderBlogs® & News

Nearby

Air Quality

  Air Quality AQ Index Pollutant
Not available.

Snow Depth

Station Depth Elevation

Earthquake Activity

City Distance Mag. Time & Date
Minimum magnitude displayed is 2.5.

Coastal Water Temperatures

Place Temperature

Stations

Nearby Weather Stations

Station Location Temp. Windchill Dew Point Humidity Wind Precip. Elev Updated Type